Weather at Mapoon Airstrip

Public forecast

Using degrees Celsius for public forecast. Weather courtesy of forecast.io.

Closest aviation weather report (METAR) to Mapoon Airstrip

Closest report is Horn Island Airport, 90.8 nm (168.2 km) NNE.

2024/02/24 03:00 (retrieved 23 minutes ago)

YHID 240300Z AUTO 31008KT 9999 // ////// 31/25 Q1007 RF000/0126

Closest aviation forecast (TAF) to Mapoon Airstrip

Forecast is more than 6 hours old.

Closest forecast is Choiseul Bay Airport, 915.9 nm (1,696.2 km) ENE.

2024/02/23 18:00 (retrieved 9 hours ago)

TAF AGGH 231710Z 2318/2418 TAF AGGC 231710Z 2318/2418 VRB03KT 9999 FEW016 SCT026 BKN100 INTER 2318/2400 5000 TSRA BKN015 FEW016CB